createdAt,value
2023-01-28T00:01:08.445Z,9.55
2023-01-28T00:03:35.557Z,9.48
2023-01-28T00:06:07.549Z,10.30
2023-01-28T00:08:34.089Z,9.80
2023-01-28T00:11:02.282Z,10.60
2023-01-28T00:13:29.464Z,9.02
2023-01-28T00:16:00.761Z,9.63
2023-01-28T00:18:28.714Z,9.40
2023-01-28T00:20:58.964Z,9.90
2023-01-28T00:23:27.367Z,9.30
2023-01-28T00:25:54.827Z,10.20
2023-01-28T00:28:22.266Z,11.02
2023-01-28T00:30:51.051Z,10.90
2023-01-28T00:33:17.634Z,11.43
2023-01-28T00:35:46.560Z,10.40
2023-01-28T00:38:13.301Z,10.27
2023-01-28T00:40:39.833Z,10.75
2023-01-28T00:43:06.407Z,11.30
2023-01-28T00:45:33.235Z,11.65
2023-01-28T00:48:00.011Z,11.00
2023-01-28T00:50:26.531Z,10.68
2023-01-28T00:52:53.078Z,11.05
2023-01-28T00:55:19.983Z,11.73
2023-01-28T00:57:47.170Z,11.27
2023-01-28T01:00:13.905Z,10.90
2023-01-28T01:02:42.226Z,11.27
2023-01-28T01:05:09.128Z,11.13
2023-01-28T01:07:41.917Z,10.50
2023-01-28T01:10:18.003Z,11.25
2023-01-28T01:12:49.154Z,10.27
2023-01-28T01:15:17.567Z,11.30
2023-01-28T01:17:47.530Z,11.98
2023-01-28T01:20:17.243Z,10.73
2023-01-28T01:22:43.860Z,11.98
2023-01-28T01:25:13.157Z,11.00
2023-01-28T01:27:41.013Z,11.45
2023-01-28T01:30:09.178Z,10.95
2023-01-28T01:32:36.599Z,10.88
2023-01-28T01:35:06.709Z,11.02
2023-01-28T01:37:34.207Z,10.20
2023-01-28T01:40:05.031Z,10.48
2023-01-28T01:42:33.570Z,11.30
2023-01-28T01:45:06.182Z,11.15
2023-01-28T01:50:31.871Z,10.57
2023-01-28T01:53:03.380Z,10.13
2023-01-28T01:55:33.547Z,10.30
2023-01-28T01:58:05.375Z,10.32
2023-01-28T02:00:32.496Z,7.60
2023-01-28T02:02:59.721Z,8.90
2023-01-28T02:05:26.300Z,9.90
2023-01-28T02:08:16.984Z,9.77
2023-01-28T02:10:45.388Z,9.75
2023-01-28T02:13:14.820Z,9.80
2023-01-28T02:15:42.283Z,8.75
2023-01-28T02:18:08.831Z,9.38
2023-01-28T02:20:54.262Z,9.75
2023-01-28T02:23:38.823Z,10.48
2023-01-28T02:26:24.235Z,9.38
2023-01-28T02:29:10.050Z,9.90
2023-01-28T02:31:44.429Z,9.80
2023-01-28T02:34:35.819Z,8.75
2023-01-28T02:37:27.439Z,8.93
2023-01-28T02:40:10.513Z,10.10
2023-01-28T02:42:39.398Z,8.82
2023-01-28T02:45:21.538Z,8.57
2023-01-28T02:48:00.209Z,9.05
2023-01-28T02:50:40.516Z,9.68
2023-01-28T02:53:43.877Z,8.40
2023-01-28T02:56:32.661Z,8.52
2023-01-28T02:59:31.881Z,8.02
2023-01-28T03:02:09.133Z,7.85
2023-01-28T03:05:01.670Z,8.15
2023-01-28T03:07:31.356Z,8.93
2023-01-28T03:10:04.186Z,8.43
2023-01-28T03:12:50.682Z,7.88
2023-01-28T03:15:40.046Z,8.40
2023-01-28T03:18:35.851Z,7.20
2023-01-28T03:21:34.959Z,7.22
2023-01-28T03:24:44.506Z,8.10
2023-01-28T03:28:23.355Z,7.82
2023-01-28T03:31:21.112Z,7.25
2023-01-28T03:34:11.379Z,7.47
2023-01-28T03:36:47.410Z,7.25
2023-01-28T03:39:31.382Z,6.68
2023-01-28T03:42:05.597Z,6.55
2023-01-28T03:44:54.070Z,5.88
2023-01-28T03:47:26.424Z,6.93
2023-01-28T03:49:55.218Z,6.80
2023-01-28T03:52:30.670Z,6.45
2023-01-28T03:55:13.781Z,6.07
2023-01-28T03:57:41.452Z,4.60
2023-01-28T04:00:10.528Z,5.82
2023-01-28T04:02:42.833Z,6.20
2023-01-28T04:05:16.447Z,6.05
2023-01-28T04:07:48.303Z,6.15
2023-01-28T04:10:20.364Z,6.47
2023-01-28T04:12:55.005Z,5.80
2023-01-28T04:15:24.025Z,5.72
2023-01-28T04:17:50.639Z,5.90
2023-01-28T04:20:27.142Z,6.13
2023-01-28T04:22:54.885Z,6.28
2023-01-28T04:25:22.705Z,5.63
2023-01-28T04:27:49.467Z,6.07
2023-01-28T04:30:21.659Z,5.72
2023-01-28T04:33:05.762Z,6.43
2023-01-28T04:35:40.360Z,6.43
2023-01-28T04:38:11.171Z,5.70
2023-01-28T04:41:06.633Z,5.85
2023-01-28T04:43:34.859Z,6.43
2023-01-28T04:46:36.784Z,5.88
2023-01-28T04:49:16.133Z,7.15
2023-01-28T04:51:51.707Z,6.45
2023-01-28T04:54:29.051Z,6.63
2023-01-28T04:56:59.182Z,6.72
2023-01-28T04:59:25.923Z,6.47
2023-01-28T05:01:52.586Z,6.53
2023-01-28T05:04:19.774Z,6.43
2023-01-28T05:06:46.645Z,6.88
2023-01-28T05:09:18.985Z,6.47
2023-01-28T05:11:45.731Z,6.63
2023-01-28T05:14:13.345Z,6.88
2023-01-28T05:16:51.237Z,6.65
2023-01-28T05:19:19.408Z,6.32
2023-01-28T05:21:47.109Z,6.90
2023-01-28T05:24:23.161Z,6.47
2023-01-28T05:26:49.737Z,6.10
2023-01-28T05:29:16.786Z,5.93
2023-01-28T05:31:43.473Z,6.25
2023-01-28T05:34:10.152Z,6.05
2023-01-28T05:36:37.084Z,5.90
2023-01-28T05:39:14.516Z,6.13
2023-01-28T05:41:41.647Z,6.22
2023-01-28T05:44:08.318Z,6.13
2023-01-28T05:46:55.135Z,6.47
2023-01-28T05:50:00.211Z,6.82
2023-01-28T05:52:52.688Z,6.47
2023-01-28T05:55:24.582Z,6.22
2023-01-28T05:57:51.880Z,6.45
2023-01-28T06:00:21.535Z,7.05
2023-01-28T06:02:48.034Z,7.15
2023-01-28T06:05:15.735Z,7.85
2023-01-28T06:07:48.111Z,8.02
2023-01-28T06:12:44.649Z,7.30
2023-01-28T06:15:36.272Z,7.72
2023-01-28T06:18:16.239Z,7.43
2023-01-28T06:20:45.894Z,6.32
2023-01-28T06:23:12.511Z,6.75
2023-01-28T06:25:39.113Z,7.32
2023-01-28T06:28:09.923Z,7.50
2023-01-28T06:30:36.465Z,6.75
2023-01-28T06:33:03.244Z,6.78
2023-01-28T06:35:29.876Z,6.65
2023-01-28T06:37:56.772Z,7.20
2023-01-28T06:40:24.952Z,6.72
2023-01-28T06:42:51.450Z,8.50
2023-01-28T06:45:18.007Z,7.53
2023-01-28T06:47:44.604Z,9.63
2023-01-28T06:50:11.613Z,9.50
2023-01-28T06:52:38.210Z,8.75
2023-01-28T06:55:05.187Z,8.65
2023-01-28T06:57:31.699Z,9.45
2023-01-28T06:59:58.229Z,8.23
2023-01-28T07:02:27.497Z,8.20
2023-01-28T07:04:54.249Z,9.27
2023-01-28T07:07:20.935Z,8.90
2023-01-28T07:09:47.444Z,9.15
2023-01-28T07:12:14.071Z,9.07
2023-01-28T07:14:40.639Z,8.63
2023-01-28T07:17:07.159Z,9.55
2023-01-28T07:19:33.683Z,8.90
2023-01-28T07:22:03.010Z,9.43
2023-01-28T07:24:30.460Z,8.68
2023-01-28T07:26:57.098Z,9.02
2023-01-28T07:29:23.647Z,9.48
2023-01-28T07:31:50.725Z,9.68
2023-01-28T07:34:17.329Z,9.40
2023-01-28T07:36:43.869Z,9.15
2023-01-28T07:39:12.881Z,10.43
2023-01-28T07:41:39.542Z,9.13
2023-01-28T07:44:06.833Z,10.55
2023-01-28T07:46:33.332Z,10.07
2023-01-28T07:49:00.250Z,9.60
2023-01-28T07:51:26.861Z,10.32
2023-01-28T07:53:53.518Z,10.00
2023-01-28T07:56:20.121Z,9.35
2023-01-28T07:58:50.206Z,9.88
2023-01-28T08:01:18.207Z,9.68
2023-01-28T08:03:44.727Z,10.15
2023-01-28T08:06:11.695Z,9.43
2023-01-28T08:08:38.202Z,10.55
2023-01-28T08:11:09.282Z,9.73
2023-01-28T08:13:35.982Z,10.88
2023-01-28T08:16:03.115Z,10.05
2023-01-28T08:18:29.801Z,10.20
2023-01-28T08:20:57.921Z,9.85
2023-01-28T08:23:26.878Z,10.13
2023-01-28T08:25:54.067Z,9.23
2023-01-28T08:28:21.727Z,10.07
2023-01-28T08:30:48.402Z,9.57
2023-01-28T08:33:16.236Z,9.75
2023-01-28T08:35:43.048Z,8.55
2023-01-28T08:38:11.949Z,9.35
2023-01-28T08:40:38.859Z,10.23
2023-01-28T08:43:06.529Z,9.63
2023-01-28T08:45:33.336Z,9.82
2023-01-28T08:48:02.292Z,10.02
2023-01-28T08:50:34.971Z,10.27
2023-01-28T08:53:07.040Z,10.07
2023-01-28T08:55:34.544Z,10.23
2023-01-28T08:58:06.945Z,10.55
2023-01-28T09:00:34.997Z,9.93
2023-01-28T09:03:04.620Z,11.23
2023-01-28T09:05:33.983Z,10.70
2023-01-28T09:08:06.531Z,10.27
2023-01-28T09:12:59.538Z,9.82
2023-01-28T09:15:26.377Z,10.65
2023-01-28T09:17:59.808Z,10.85
2023-01-28T09:20:27.575Z,10.55
2023-01-28T09:22:54.711Z,9.82
2023-01-28T09:25:23.936Z,10.20
2023-01-28T09:27:50.653Z,9.70
2023-01-28T09:30:17.839Z,10.35
2023-01-28T09:32:44.717Z,10.13
2023-01-28T09:35:11.828Z,11.02
2023-01-28T09:37:38.365Z,10.00
2023-01-28T09:40:05.676Z,10.75
2023-01-28T09:42:44.893Z,10.27
2023-01-28T09:45:17.482Z,11.05
2023-01-28T09:50:34.103Z,10.75
2023-01-28T09:53:07.526Z,11.05
2023-01-28T09:55:44.515Z,10.60
2023-01-28T09:58:13.531Z,12.18
2023-01-28T10:00:59.097Z,10.35
2023-01-28T10:03:41.169Z,10.35
2023-01-28T10:06:23.916Z,10.85
2023-01-28T10:09:05.422Z,9.73
2023-01-28T10:12:17.199Z,10.40
2023-01-28T10:14:55.963Z,10.13
2023-01-28T10:17:43.571Z,10.55
2023-01-28T10:20:14.051Z,10.48
2023-01-28T10:22:54.891Z,10.43
2023-01-28T10:25:25.693Z,9.77
2023-01-28T10:27:52.539Z,9.48
2023-01-28T10:30:22.274Z,9.02
2023-01-28T10:32:53.667Z,9.73
2023-01-28T10:35:21.769Z,9.75
2023-01-28T10:37:48.899Z,9.52
2023-01-28T10:40:17.988Z,9.40
2023-01-28T10:42:45.575Z,8.90
2023-01-28T10:45:23.147Z,8.43
2023-01-28T10:47:55.957Z,9.75
2023-01-28T10:50:27.711Z,8.65
2023-01-28T10:52:59.033Z,7.18
2023-01-28T10:55:29.809Z,8.18
2023-01-28T10:57:56.896Z,8.10
2023-01-28T11:00:26.906Z,7.55
2023-01-28T11:02:54.215Z,7.95
2023-01-28T11:05:25.740Z,7.75
2023-01-28T11:08:13.068Z,7.80
2023-01-28T11:10:40.380Z,7.68
2023-01-28T11:13:16.349Z,7.90
2023-01-28T11:15:50.739Z,7.05
2023-01-28T11:18:28.353Z,7.68
2023-01-28T11:20:59.074Z,7.05
2023-01-28T11:23:35.868Z,7.85
2023-01-28T11:26:15.818Z,6.82
2023-01-28T11:28:43.488Z,6.80
2023-01-28T11:31:14.848Z,6.40
2023-01-28T11:33:50.695Z,7.18
2023-01-28T11:36:23.348Z,6.15
2023-01-28T11:41:37.398Z,7.20
2023-01-28T11:44:19.253Z,6.55
2023-01-28T11:46:55.980Z,7.00
2023-01-28T11:49:32.617Z,7.20
2023-01-28T11:52:24.555Z,7.25
2023-01-28T11:55:21.608Z,6.75
2023-01-28T11:58:14.397Z,6.68
2023-01-28T12:01:22.121Z,6.72
2023-01-28T12:04:03.953Z,7.30
2023-01-28T12:06:42.610Z,7.10
2023-01-28T12:09:50.085Z,6.40
2023-01-28T12:12:47.668Z,6.80
2023-01-28T12:15:34.154Z,6.00
2023-01-28T12:18:06.441Z,6.55
2023-01-28T12:20:57.958Z,6.03
2023-01-28T12:23:58.333Z,5.65
2023-01-28T12:26:47.369Z,6.63
2023-01-28T12:29:25.970Z,6.15
2023-01-28T12:31:52.577Z,6.57
2023-01-28T12:34:46.870Z,7.22
2023-01-28T12:37:25.449Z,6.60
2023-01-28T12:40:06.871Z,6.07
2023-01-28T12:42:45.594Z,7.40
2023-01-28T12:45:19.221Z,6.45
2023-01-28T12:48:02.287Z,6.65
2023-01-28T12:50:38.113Z,6.65
2023-01-28T12:53:28.359Z,6.82
2023-01-28T12:56:16.794Z,6.63
2023-01-28T12:59:23.720Z,6.63
2023-01-28T13:02:12.112Z,6.68
2023-01-28T13:05:05.938Z,6.53
2023-01-28T13:07:53.486Z,7.28
2023-01-28T13:10:19.962Z,6.60
2023-01-28T13:12:48.223Z,6.93
2023-01-28T13:15:18.351Z,6.43
2023-01-28T13:17:56.475Z,6.88
2023-01-28T13:20:50.680Z,7.57
2023-01-28T13:23:22.824Z,7.38
2023-01-28T13:25:52.887Z,6.10
2023-01-28T13:28:28.892Z,6.85
2023-01-28T13:31:08.710Z,6.40
2023-01-28T13:33:41.331Z,5.75
2023-01-28T13:38:59.659Z,6.68
2023-01-28T13:41:48.193Z,6.85
2023-01-28T13:44:32.469Z,6.43
2023-01-28T13:47:08.379Z,6.55
2023-01-28T13:49:41.248Z,7.65
2023-01-28T13:52:16.280Z,6.82
2023-01-28T13:54:51.687Z,7.07
2023-01-28T13:57:49.341Z,7.03
2023-01-28T14:00:25.180Z,7.40
2023-01-28T14:03:13.766Z,7.43
2023-01-28T14:05:58.474Z,7.22
2023-01-28T14:08:57.287Z,7.78
2023-01-28T14:11:42.587Z,7.68
2023-01-28T14:14:31.121Z,7.07
2023-01-28T14:17:30.421Z,8.05
2023-01-28T14:19:58.377Z,7.38
2023-01-28T14:22:26.087Z,7.53
2023-01-28T14:24:53.085Z,7.47
2023-01-28T14:27:47.503Z,7.80
2023-01-28T14:30:41.630Z,7.15
2023-01-28T14:33:11.896Z,7.88
2023-01-28T14:35:44.428Z,7.05
2023-01-28T14:38:16.838Z,7.90
2023-01-28T14:40:43.921Z,7.68
2023-01-28T14:43:18.074Z,8.00
2023-01-28T14:45:44.527Z,8.25
2023-01-28T14:48:32.012Z,7.78
2023-01-28T14:51:30.345Z,7.75
2023-01-28T14:54:28.908Z,8.93
2023-01-28T14:57:03.534Z,8.27
2023-01-28T14:59:34.432Z,10.27
2023-01-28T15:02:01.842Z,9.77
2023-01-28T15:04:35.598Z,8.88
2023-01-28T15:07:17.223Z,8.70
2023-01-28T15:09:44.368Z,6.75
2023-01-28T15:12:11.556Z,7.35
2023-01-28T15:14:39.770Z,7.30
2023-01-28T15:17:06.655Z,7.65
2023-01-28T15:19:35.852Z,8.20
2023-01-28T15:22:05.686Z,8.25
2023-01-28T15:24:34.880Z,8.00
2023-01-28T15:27:01.935Z,8.52
2023-01-28T15:29:32.362Z,9.02
2023-01-28T15:31:59.499Z,9.10
2023-01-28T15:34:32.527Z,9.43
2023-01-28T15:37:00.447Z,9.40
2023-01-28T15:39:28.882Z,13.88
2023-01-28T15:41:57.513Z,9.93
2023-01-28T15:44:32.394Z,25.42
2023-01-28T15:47:04.593Z,12.85
2023-01-28T15:49:35.517Z,11.07
2023-01-28T15:52:02.462Z,9.88
2023-01-28T15:54:30.630Z,10.75
2023-01-28T15:56:57.464Z,9.50
2023-01-28T15:59:27.869Z,8.25
2023-01-28T16:02:17.667Z,10.07
2023-01-28T16:04:44.264Z,10.98
2023-01-28T16:07:10.931Z,12.70
2023-01-28T16:09:37.503Z,18.15
2023-01-28T16:12:07.458Z,13.57
2023-01-28T16:14:50.431Z,12.65
2023-01-28T16:19:49.362Z,16.25
2023-01-28T16:22:22.152Z,14.68
2023-01-28T16:24:53.899Z,13.57
2023-01-28T16:27:24.775Z,10.27
2023-01-28T16:29:51.390Z,9.35
2023-01-28T16:32:34.364Z,8.68
2023-01-28T16:35:01.812Z,7.95
2023-01-28T16:37:28.700Z,9.07
2023-01-28T16:39:55.284Z,9.90
2023-01-28T16:42:21.922Z,10.45
2023-01-28T16:44:48.474Z,10.85
2023-01-28T16:47:14.975Z,9.18
2023-01-28T16:49:41.593Z,9.70
2023-01-28T16:52:11.203Z,9.40
2023-01-28T16:54:39.157Z,9.70
2023-01-28T16:57:05.722Z,11.48
2023-01-28T16:59:32.246Z,10.52
2023-01-28T17:01:58.827Z,11.55
2023-01-28T17:04:25.388Z,14.38
2023-01-28T17:06:53.219Z,17.60
2023-01-28T17:09:20.482Z,11.95
2023-01-28T17:11:47.700Z,12.40
2023-01-28T17:14:14.236Z,10.10
2023-01-28T17:16:40.986Z,13.25
2023-01-28T17:19:07.694Z,11.15
2023-01-28T17:21:34.337Z,13.73
2023-01-28T17:24:01.527Z,13.43
2023-01-28T17:26:31.633Z,13.73
2023-01-28T17:28:58.337Z,13.55
2023-01-28T17:31:26.410Z,14.20
2023-01-28T17:33:55.337Z,10.55
2023-01-28T17:36:22.483Z,11.02
2023-01-28T17:38:49.089Z,12.13
2023-01-28T17:41:17.254Z,11.68
2023-01-28T17:43:44.423Z,12.98
2023-01-28T17:46:15.837Z,13.10
2023-01-28T17:48:45.647Z,11.77
2023-01-28T17:51:13.693Z,12.70
2023-01-28T17:53:44.667Z,12.00
2023-01-28T17:56:16.909Z,12.20
2023-01-28T17:58:43.484Z,11.98
2023-01-28T18:01:10.839Z,11.95
2023-01-28T18:03:37.431Z,13.07
2023-01-28T18:06:04.458Z,12.77
2023-01-28T18:08:30.978Z,12.82
2023-01-28T18:10:57.586Z,12.25
2023-01-28T18:13:24.216Z,12.13
2023-01-28T18:15:50.782Z,12.75
2023-01-28T18:18:17.352Z,11.88
2023-01-28T18:20:43.846Z,12.27
2023-01-28T18:23:10.427Z,11.48
2023-01-28T18:25:37.225Z,11.88
2023-01-28T18:28:05.640Z,12.10
2023-01-28T18:30:32.175Z,12.30
2023-01-28T18:32:58.760Z,13.60
2023-01-28T18:35:25.321Z,13.80
2023-01-28T18:37:51.883Z,14.75
2023-01-28T18:40:18.669Z,15.93
2023-01-28T18:42:45.223Z,14.57
2023-01-28T18:45:11.824Z,13.18
2023-01-28T18:47:38.397Z,14.05
2023-01-28T18:50:05.625Z,14.73
2023-01-28T18:52:32.239Z,14.63
2023-01-28T18:54:58.747Z,16.00
2023-01-28T18:57:25.271Z,16.23
2023-01-28T18:59:51.832Z,17.38
2023-01-28T19:02:18.520Z,16.95
2023-01-28T19:04:45.070Z,17.58
2023-01-28T19:07:12.034Z,16.45
2023-01-28T19:09:38.648Z,16.63
2023-01-28T19:12:05.830Z,16.02
2023-01-28T19:14:32.623Z,16.20
2023-01-28T19:16:59.584Z,18.40
2023-01-28T19:19:26.373Z,18.95
2023-01-28T19:21:53.467Z,18.35
2023-01-28T19:24:20.390Z,16.85
2023-01-28T19:26:46.963Z,17.10
2023-01-28T19:29:16.155Z,16.27
2023-01-28T19:31:44.323Z,18.45
2023-01-28T19:34:11.354Z,17.73
2023-01-28T19:36:38.055Z,17.23
2023-01-28T19:39:07.860Z,17.23
2023-01-28T19:41:35.950Z,20.88
2023-01-28T19:44:02.655Z,24.98
2023-01-28T19:46:29.293Z,20.15
2023-01-28T19:48:56.151Z,18.58
2023-01-28T19:51:22.959Z,15.63
2023-01-28T19:53:53.930Z,17.27
2023-01-28T19:56:22.911Z,17.70
2023-01-28T19:58:49.972Z,18.70
2023-01-28T20:01:20.345Z,23.70
2023-01-28T20:03:52.715Z,21.77
2023-01-28T20:06:19.636Z,21.40
2023-01-28T20:08:51.711Z,20.30
2023-01-28T20:11:18.652Z,18.65
2023-01-28T20:13:46.900Z,18.67
2023-01-28T20:16:17.801Z,16.83
2023-01-28T20:18:49.896Z,18.30
2023-01-28T20:21:18.760Z,22.23
2023-01-28T20:23:46.545Z,21.67
2023-01-28T20:26:13.100Z,22.83
2023-01-28T20:28:39.880Z,21.90
2023-01-28T20:31:10.187Z,21.40
2023-01-28T20:33:38.754Z,23.52
2023-01-28T20:36:11.312Z,21.42
2023-01-28T20:38:42.922Z,23.67
2023-01-28T20:41:12.458Z,32.77
2023-01-28T20:43:41.087Z,24.58
2023-01-28T20:46:13.237Z,21.45
2023-01-28T20:48:39.933Z,23.05
2023-01-28T20:51:14.120Z,22.83
2023-01-28T20:53:41.849Z,20.88
2023-01-28T20:56:10.101Z,21.15
2023-01-28T20:58:36.894Z,20.98
2023-01-28T21:01:04.241Z,22.15
2023-01-28T21:03:31.008Z,23.00
2023-01-28T21:05:57.534Z,21.13
2023-01-28T21:08:24.292Z,22.90
2023-01-28T21:10:50.891Z,24.13
2023-01-28T21:13:17.610Z,23.08
2023-01-28T21:15:55.730Z,25.35
2023-01-28T21:18:23.217Z,26.85
2023-01-28T21:20:50.770Z,23.75
2023-01-28T21:23:18.496Z,22.55
2023-01-28T21:25:52.501Z,20.77
2023-01-28T21:28:19.961Z,21.92
2023-01-28T21:30:47.482Z,22.23
2023-01-28T21:33:14.132Z,24.23
2023-01-28T21:35:43.271Z,21.98
2023-01-28T21:38:10.763Z,18.75
2023-01-28T21:40:37.895Z,19.52
2023-01-28T21:43:04.559Z,18.95
2023-01-28T21:45:31.109Z,19.95
2023-01-28T21:47:57.969Z,19.48
2023-01-28T21:50:24.809Z,20.40
2023-01-28T21:52:51.389Z,18.45
2023-01-28T21:55:18.623Z,18.80
2023-01-28T21:57:45.152Z,18.77
2023-01-28T22:00:13.070Z,19.58
2023-01-28T22:02:40.372Z,18.88
2023-01-28T22:05:07.306Z,16.95
2023-01-28T22:07:33.969Z,18.45
2023-01-28T22:10:00.622Z,17.48
2023-01-28T22:12:28.095Z,18.48
2023-01-28T22:14:54.844Z,18.00
2023-01-28T22:17:21.461Z,18.90
2023-01-28T22:19:48.188Z,18.65
2023-01-28T22:22:16.377Z,19.40
2023-01-28T22:24:42.959Z,20.00
2023-01-28T22:27:10.060Z,19.67
2023-01-28T22:29:36.607Z,21.13
2023-01-28T22:32:04.720Z,20.88
2023-01-28T22:34:31.710Z,18.45
2023-01-28T22:36:58.296Z,19.45
2023-01-28T22:39:25.017Z,23.63
2023-01-28T22:41:51.590Z,23.05
2023-01-28T22:44:19.886Z,21.00
2023-01-28T22:46:47.314Z,21.52
2023-01-28T22:49:15.000Z,20.00
2023-01-28T22:51:41.961Z,19.25
2023-01-28T22:54:10.977Z,20.60
2023-01-28T22:56:38.238Z,19.42
2023-01-28T22:59:04.883Z,20.65
2023-01-28T23:01:31.554Z,21.20
2023-01-28T23:03:58.532Z,21.20
2023-01-28T23:06:27.482Z,25.83
2023-01-28T23:08:56.110Z,24.38
2023-01-28T23:11:27.197Z,21.15
2023-01-28T23:14:14.808Z,18.90
2023-01-28T23:17:00.366Z,19.45
2023-01-28T23:19:45.528Z,21.25
2023-01-28T23:22:34.363Z,19.40
2023-01-28T23:25:00.971Z,18.48
2023-01-28T23:27:27.628Z,17.92
2023-01-28T23:29:54.221Z,17.77
2023-01-28T23:32:21.654Z,18.40
2023-01-28T23:34:48.316Z,17.20
2023-01-28T23:37:15.925Z,17.52
2023-01-28T23:39:43.118Z,17.25
2023-01-28T23:42:20.865Z,17.83
2023-01-28T23:44:47.747Z,15.68
2023-01-28T23:47:14.645Z,16.90
2023-01-28T23:49:41.437Z,17.35
2023-01-28T23:52:08.859Z,17.92
2023-01-28T23:54:35.934Z,17.38
2023-01-28T23:57:03.267Z,17.17
2023-01-28T23:59:30.063Z,18.15
